sensor_id;sensor_type;location;lat;lon;timestamp;temperature;humidity
15656;DHT22;7928;43.614;1.456;2023-05-02T00:02:07;14.60;99.90
15656;DHT22;7928;43.614;1.456;2023-05-02T00:04:34;14.70;99.90
15656;DHT22;7928;43.614;1.456;2023-05-02T00:07:02;14.50;99.90
15656;DHT22;7928;43.614;1.456;2023-05-02T00:09:30;14.40;99.90
15656;DHT22;7928;43.614;1.456;2023-05-02T00:11:57;14.30;99.90
15656;DHT22;7928;43.614;1.456;2023-05-02T00:14:24;14.30;99.90
15656;DHT22;7928;43.614;1.456;2023-05-02T00:16:51;14.20;99.90
15656;DHT22;7928;43.614;1.456;2023-05-02T00:19:18;14.20;99.90
15656;DHT22;7928;43.614;1.456;2023-05-02T00:21:46;14.10;99.90
15656;DHT22;7928;43.614;1.456;2023-05-02T00:24:13;14.10;99.90
15656;DHT22;7928;43.614;1.456;2023-05-02T00:26:42;14.00;99.90
15656;DHT22;7928;43.614;1.456;2023-05-02T00:29:09;14.00;99.90
15656;DHT22;7928;43.614;1.456;2023-05-02T00:31:36;14.00;99.90
15656;DHT22;7928;43.614;1.456;2023-05-02T00:34:03;13.90;99.90
15656;DHT22;7928;43.614;1.456;2023-05-02T00:36:30;13.90;99.90
15656;DHT22;7928;43.614;1.456;2023-05-02T00:38:56;13.90;99.90
15656;DHT22;7928;43.614;1.456;2023-05-02T00:41:23;13.90;99.90
15656;DHT22;7928;43.614;1.456;2023-05-02T00:43:52;13.90;99.90
15656;DHT22;7928;43.614;1.456;2023-05-02T00:46:19;13.90;99.90
15656;DHT22;7928;43.614;1.456;2023-05-02T00:48:46;13.80;99.90
15656;DHT22;7928;43.614;1.456;2023-05-02T00:51:13;13.70;99.90
15656;DHT22;7928;43.614;1.456;2023-05-02T00:53:41;13.70;99.90
15656;DHT22;7928;43.614;1.456;2023-05-02T00:56:08;13.60;99.90
15656;DHT22;7928;43.614;1.456;2023-05-02T00:58:35;13.70;99.90
15656;DHT22;7928;43.614;1.456;2023-05-02T01:01:10;13.70;99.90
15656;DHT22;7928;43.614;1.456;2023-05-02T01:03:48;13.60;99.90
15656;DHT22;7928;43.614;1.456;2023-05-02T01:06:30;13.60;99.90
15656;DHT22;7928;43.614;1.456;2023-05-02T01:09:07;13.60;99.90
15656;DHT22;7928;43.614;1.456;2023-05-02T01:11:45;13.50;99.90
15656;DHT22;7928;43.614;1.456;2023-05-02T01:14:14;13.50;99.90
15656;DHT22;7928;43.614;1.456;2023-05-02T01:16:42;13.50;99.90
15656;DHT22;7928;43.614;1.456;2023-05-02T01:19:21;13.50;99.90
15656;DHT22;7928;43.614;1.456;2023-05-02T01:21:51;13.50;99.90
15656;DHT22;7928;43.614;1.456;2023-05-02T01:24:24;13.40;99.90
15656;DHT22;7928;43.614;1.456;2023-05-02T01:27:00;13.40;99.90
15656;DHT22;7928;43.614;1.456;2023-05-02T01:29:32;13.40;99.90
15656;DHT22;7928;43.614;1.456;2023-05-02T01:32:01;13.30;99.90
15656;DHT22;7928;43.614;1.456;2023-05-02T01:34:29;13.30;99.90
15656;DHT22;7928;43.614;1.456;2023-05-02T01:36:57;13.30;99.90
15656;DHT22;7928;43.614;1.456;2023-05-02T01:39:26;13.30;99.90
15656;DHT22;7928;43.614;1.456;2023-05-02T01:41:55;13.30;99.90
15656;DHT22;7928;43.614;1.456;2023-05-02T01:44:24;13.30;99.90
15656;DHT22;7928;43.614;1.456;2023-05-02T01:46:54;13.30;99.90
15656;DHT22;7928;43.614;1.456;2023-05-02T01:49:23;13.20;99.90
15656;DHT22;7928;43.614;1.456;2023-05-02T01:51:51;13.10;99.90
15656;DHT22;7928;43.614;1.456;2023-05-02T01:54:20;13.10;99.90
15656;DHT22;7928;43.614;1.456;2023-05-02T01:56:49;13.00;99.90
15656;DHT22;7928;43.614;1.456;2023-05-02T01:59:18;13.00;99.90
15656;DHT22;7928;43.614;1.456;2023-05-02T02:01:47;13.00;99.90
15656;DHT22;7928;43.614;1.456;2023-05-02T02:04:18;13.00;99.90
15656;DHT22;7928;43.614;1.456;2023-05-02T02:06:49;12.90;99.90
15656;DHT22;7928;43.614;1.456;2023-05-02T02:09:17;12.90;99.90
15656;DHT22;7928;43.614;1.456;2023-05-02T02:11:58;12.90;99.90
15656;DHT22;7928;43.614;1.456;2023-05-02T02:14:33;12.90;99.90
15656;DHT22;7928;43.614;1.456;2023-05-02T02:17:01;12.80;99.90
15656;DHT22;7928;43.614;1.456;2023-05-02T02:19:32;12.80;99.90
15656;DHT22;7928;43.614;1.456;2023-05-02T02:22:02;12.80;99.90
15656;DHT22;7928;43.614;1.456;2023-05-02T02:24:31;12.80;99.90
15656;DHT22;7928;43.614;1.456;2023-05-02T02:27:01;12.80;99.90
15656;DHT22;7928;43.614;1.456;2023-05-02T02:29:28;12.80;99.90
15656;DHT22;7928;43.614;1.456;2023-05-02T02:31:55;12.80;99.90
15656;DHT22;7928;43.614;1.456;2023-05-02T02:34:23;12.80;99.90
15656;DHT22;7928;43.614;1.456;2023-05-02T02:36:56;12.80;99.90
15656;DHT22;7928;43.614;1.456;2023-05-02T02:39:34;12.70;99.90
15656;DHT22;7928;43.614;1.456;2023-05-02T02:42:11;12.70;99.90
15656;DHT22;7928;43.614;1.456;2023-05-02T02:44:49;12.70;99.90
15656;DHT22;7928;43.614;1.456;2023-05-02T02:47:23;12.70;99.90
15656;DHT22;7928;43.614;1.456;2023-05-02T02:50:03;12.70;99.90
15656;DHT22;7928;43.614;1.456;2023-05-02T02:52:43;12.70;99.90
15656;DHT22;7928;43.614;1.456;2023-05-02T02:55:23;12.70;99.90
15656;DHT22;7928;43.614;1.456;2023-05-02T02:58:03;12.70;99.90
15656;DHT22;7928;43.614;1.456;2023-05-02T03:00:34;12.70;99.90
15656;DHT22;7928;43.614;1.456;2023-05-02T03:03:01;12.60;99.90
15656;DHT22;7928;43.614;1.456;2023-05-02T03:05:30;12.60;99.90
15656;DHT22;7928;43.614;1.456;2023-05-02T03:08:00;12.60;99.90
15656;DHT22;7928;43.614;1.456;2023-05-02T03:10:26;12.60;99.90
15656;DHT22;7928;43.614;1.456;2023-05-02T03:12:53;12.60;99.90
15656;DHT22;7928;43.614;1.456;2023-05-02T03:16:05;12.50;99.90
15656;DHT22;7928;43.614;1.456;2023-05-02T03:18:38;12.50;99.90
15656;DHT22;7928;43.614;1.456;2023-05-02T03:21:05;12.50;99.90
15656;DHT22;7928;43.614;1.456;2023-05-02T03:23:34;12.50;99.90
15656;DHT22;7928;43.614;1.456;2023-05-02T03:26:01;12.40;99.90
15656;DHT22;7928;43.614;1.456;2023-05-02T03:28:28;12.40;99.90
15656;DHT22;7928;43.614;1.456;2023-05-02T03:30:55;12.40;99.90
15656;DHT22;7928;43.614;1.456;2023-05-02T03:33:22;12.40;99.90
15656;DHT22;7928;43.614;1.456;2023-05-02T03:35:50;12.40;99.90
15656;DHT22;7928;43.614;1.456;2023-05-02T03:38:17;12.40;99.90
15656;DHT22;7928;43.614;1.456;2023-05-02T03:40:45;12.40;99.90
15656;DHT22;7928;43.614;1.456;2023-05-02T03:43:12;12.30;99.90
15656;DHT22;7928;43.614;1.456;2023-05-02T03:45:39;12.30;99.90
15656;DHT22;7928;43.614;1.456;2023-05-02T03:48:06;12.20;99.90
15656;DHT22;7928;43.614;1.456;2023-05-02T03:50:33;12.20;99.90
15656;DHT22;7928;43.614;1.456;2023-05-02T03:53:00;12.20;99.90
15656;DHT22;7928;43.614;1.456;2023-05-02T03:55:27;12.20;99.90
15656;DHT22;7928;43.614;1.456;2023-05-02T03:57:55;12.20;99.90
15656;DHT22;7928;43.614;1.456;2023-05-02T04:00:22;12.20;99.90
15656;DHT22;7928;43.614;1.456;2023-05-02T04:02:49;12.20;99.90
15656;DHT22;7928;43.614;1.456;2023-05-02T04:05:17;12.20;99.90
15656;DHT22;7928;43.614;1.456;2023-05-02T04:07:44;12.20;99.90
15656;DHT22;7928;43.614;1.456;2023-05-02T04:10:11;12.20;99.90
15656;DHT22;7928;43.614;1.456;2023-05-02T04:12:41;12.10;99.90
15656;DHT22;7928;43.614;1.456;2023-05-02T04:15:10;12.10;99.90
15656;DHT22;7928;43.614;1.456;2023-05-02T04:17:37;12.10;99.90
15656;DHT22;7928;43.614;1.456;2023-05-02T04:20:05;12.10;99.90
15656;DHT22;7928;43.614;1.456;2023-05-02T04:22:33;12.00;99.90
15656;DHT22;7928;43.614;1.456;2023-05-02T04:25:00;12.00;99.90
15656;DHT22;7928;43.614;1.456;2023-05-02T04:27:27;12.10;99.90
15656;DHT22;7928;43.614;1.456;2023-05-02T04:29:54;12.00;99.90
15656;DHT22;7928;43.614;1.456;2023-05-02T04:32:22;12.00;99.90
15656;DHT22;7928;43.614;1.456;2023-05-02T04:34:50;12.00;99.90
15656;DHT22;7928;43.614;1.456;2023-05-02T04:37:17;12.00;99.90
15656;DHT22;7928;43.614;1.456;2023-05-02T04:39:44;12.00;99.90
15656;DHT22;7928;43.614;1.456;2023-05-02T04:42:11;12.00;99.90
15656;DHT22;7928;43.614;1.456;2023-05-02T04:44:38;12.00;99.90
15656;DHT22;7928;43.614;1.456;2023-05-02T04:47:05;12.00;99.90
15656;DHT22;7928;43.614;1.456;2023-05-02T04:49:33;12.00;99.90
15656;DHT22;7928;43.614;1.456;2023-05-02T04:52:00;12.00;99.90
15656;DHT22;7928;43.614;1.456;2023-05-02T04:54:27;11.90;99.90
15656;DHT22;7928;43.614;1.456;2023-05-02T04:56:54;11.90;99.90
15656;DHT22;7928;43.614;1.456;2023-05-02T04:59:21;11.90;99.90
15656;DHT22;7928;43.614;1.456;2023-05-02T05:01:48;11.80;99.90
15656;DHT22;7928;43.614;1.456;2023-05-02T05:04:15;11.80;99.90
15656;DHT22;7928;43.614;1.456;2023-05-02T05:06:44;11.80;99.90
15656;DHT22;7928;43.614;1.456;2023-05-02T05:09:11;11.70;99.90
15656;DHT22;7928;43.614;1.456;2023-05-02T05:11:38;11.70;99.90
15656;DHT22;7928;43.614;1.456;2023-05-02T05:14:07;11.60;99.90
15656;DHT22;7928;43.614;1.456;2023-05-02T05:16:34;11.70;99.90
15656;DHT22;7928;43.614;1.456;2023-05-02T05:19:02;11.70;99.90
15656;DHT22;7928;43.614;1.456;2023-05-02T05:21:29;11.70;99.90
15656;DHT22;7928;43.614;1.456;2023-05-02T05:23:58;11.70;99.90
15656;DHT22;7928;43.614;1.456;2023-05-02T05:26:25;11.80;99.90
15656;DHT22;7928;43.614;1.456;2023-05-02T05:28:52;11.80;99.90
15656;DHT22;7928;43.614;1.456;2023-05-02T05:31:19;11.80;99.90
15656;DHT22;7928;43.614;1.456;2023-05-02T05:33:46;11.80;99.90
15656;DHT22;7928;43.614;1.456;2023-05-02T05:36:13;11.90;99.90
15656;DHT22;7928;43.614;1.456;2023-05-02T05:38:40;11.90;99.90
15656;DHT22;7928;43.614;1.456;2023-05-02T05:41:09;11.90;99.90
15656;DHT22;7928;43.614;1.456;2023-05-02T05:43:36;11.90;99.90
15656;DHT22;7928;43.614;1.456;2023-05-02T05:46:03;11.80;99.90
15656;DHT22;7928;43.614;1.456;2023-05-02T05:48:30;11.90;99.90
15656;DHT22;7928;43.614;1.456;2023-05-02T05:50:57;11.90;99.90
15656;DHT22;7928;43.614;1.456;2023-05-02T05:53:24;12.00;99.90
15656;DHT22;7928;43.614;1.456;2023-05-02T05:55:51;12.00;99.90
15656;DHT22;7928;43.614;1.456;2023-05-02T05:58:19;12.10;99.90
15656;DHT22;7928;43.614;1.456;2023-05-02T06:00:46;12.20;99.90
15656;DHT22;7928;43.614;1.456;2023-05-02T06:03:13;12.30;99.90
15656;DHT22;7928;43.614;1.456;2023-05-02T06:05:40;12.30;99.90
15656;DHT22;7928;43.614;1.456;2023-05-02T06:08:07;12.40;99.90
15656;DHT22;7928;43.614;1.456;2023-05-02T06:10:34;12.50;99.90
15656;DHT22;7928;43.614;1.456;2023-05-02T06:13:01;12.50;99.90
15656;DHT22;7928;43.614;1.456;2023-05-02T06:15:32;12.50;99.90
15656;DHT22;7928;43.614;1.456;2023-05-02T06:17:59;12.60;99.90
15656;DHT22;7928;43.614;1.456;2023-05-02T06:20:26;12.70;99.90
15656;DHT22;7928;43.614;1.456;2023-05-02T06:22:53;12.70;99.90
15656;DHT22;7928;43.614;1.456;2023-05-02T06:25:21;12.80;99.90
15656;DHT22;7928;43.614;1.456;2023-05-02T06:27:48;12.90;99.90
15656;DHT22;7928;43.614;1.456;2023-05-02T06:30:15;12.90;99.90
15656;DHT22;7928;43.614;1.456;2023-05-02T06:32:43;13.00;99.90
15656;DHT22;7928;43.614;1.456;2023-05-02T06:35:10;13.00;99.90
15656;DHT22;7928;43.614;1.456;2023-05-02T06:37:37;12.90;99.90
15656;DHT22;7928;43.614;1.456;2023-05-02T06:40:05;12.90;99.90
15656;DHT22;7928;43.614;1.456;2023-05-02T06:42:33;12.90;99.90
15656;DHT22;7928;43.614;1.456;2023-05-02T06:45:00;12.90;99.90
15656;DHT22;7928;43.614;1.456;2023-05-02T06:47:27;12.90;99.90
15656;DHT22;7928;43.614;1.456;2023-05-02T06:49:56;13.00;99.90
15656;DHT22;7928;43.614;1.456;2023-05-02T06:52:23;13.10;99.90
15656;DHT22;7928;43.614;1.456;2023-05-02T06:54:50;13.20;99.90
15656;DHT22;7928;43.614;1.456;2023-05-02T06:57:17;13.30;99.90
15656;DHT22;7928;43.614;1.456;2023-05-02T06:59:44;13.40;99.90
15656;DHT22;7928;43.614;1.456;2023-05-02T07:02:11;13.50;99.90
15656;DHT22;7928;43.614;1.456;2023-05-02T07:04:38;13.60;99.90
15656;DHT22;7928;43.614;1.456;2023-05-02T07:07:06;13.80;99.90
15656;DHT22;7928;43.614;1.456;2023-05-02T07:09:33;13.90;99.90
15656;DHT22;7928;43.614;1.456;2023-05-02T07:12:00;14.00;99.90
15656;DHT22;7928;43.614;1.456;2023-05-02T07:14:28;14.10;99.90
15656;DHT22;7928;43.614;1.456;2023-05-02T07:16:55;14.20;99.90
15656;DHT22;7928;43.614;1.456;2023-05-02T07:19:22;14.30;99.90
15656;DHT22;7928;43.614;1.456;2023-05-02T07:21:49;14.40;99.90
15656;DHT22;7928;43.614;1.456;2023-05-02T07:24:17;14.40;99.90
15656;DHT22;7928;43.614;1.456;2023-05-02T07:26:44;14.50;99.90
15656;DHT22;7928;43.614;1.456;2023-05-02T07:29:11;14.50;99.90
15656;DHT22;7928;43.614;1.456;2023-05-02T07:31:38;14.60;99.90
15656;DHT22;7928;43.614;1.456;2023-05-02T07:34:05;14.70;99.90
15656;DHT22;7928;43.614;1.456;2023-05-02T07:36:32;14.80;99.90
15656;DHT22;7928;43.614;1.456;2023-05-02T07:38:59;14.90;99.90
15656;DHT22;7928;43.614;1.456;2023-05-02T07:41:27;15.00;99.90
15656;DHT22;7928;43.614;1.456;2023-05-02T07:43:54;15.00;99.90
15656;DHT22;7928;43.614;1.456;2023-05-02T07:46:22;15.10;99.90
15656;DHT22;7928;43.614;1.456;2023-05-02T07:48:49;15.10;99.90
15656;DHT22;7928;43.614;1.456;2023-05-02T07:51:18;15.10;99.90
15656;DHT22;7928;43.614;1.456;2023-05-02T07:53:46;15.30;99.90
15656;DHT22;7928;43.614;1.456;2023-05-02T07:56:13;15.30;99.90
15656;DHT22;7928;43.614;1.456;2023-05-02T07:58:41;15.30;99.90
15656;DHT22;7928;43.614;1.456;2023-05-02T08:01:08;15.40;99.90
15656;DHT22;7928;43.614;1.456;2023-05-02T08:03:36;15.50;99.90
15656;DHT22;7928;43.614;1.456;2023-05-02T08:06:03;15.70;99.90
15656;DHT22;7928;43.614;1.456;2023-05-02T08:08:30;15.70;99.90
15656;DHT22;7928;43.614;1.456;2023-05-02T08:10:57;15.80;99.90
15656;DHT22;7928;43.614;1.456;2023-05-02T08:13:24;15.90;99.90
15656;DHT22;7928;43.614;1.456;2023-05-02T08:15:53;15.90;99.90
15656;DHT22;7928;43.614;1.456;2023-05-02T08:18:22;15.80;99.90
15656;DHT22;7928;43.614;1.456;2023-05-02T08:20:49;15.90;99.90
15656;DHT22;7928;43.614;1.456;2023-05-02T08:23:16;15.90;99.90
15656;DHT22;7928;43.614;1.456;2023-05-02T08:25:43;15.90;99.90
15656;DHT22;7928;43.614;1.456;2023-05-02T08:28:10;16.00;99.90
15656;DHT22;7928;43.614;1.456;2023-05-02T08:30:37;16.00;99.90
15656;DHT22;7928;43.614;1.456;2023-05-02T08:33:06;16.10;99.90
15656;DHT22;7928;43.614;1.456;2023-05-02T08:35:33;16.20;99.90
15656;DHT22;7928;43.614;1.456;2023-05-02T08:38:00;16.30;99.90
15656;DHT22;7928;43.614;1.456;2023-05-02T08:40:34;16.40;99.90
15656;DHT22;7928;43.614;1.456;2023-05-02T08:43:02;16.50;99.90
15656;DHT22;7928;43.614;1.456;2023-05-02T08:45:33;16.60;99.90
15656;DHT22;7928;43.614;1.456;2023-05-02T08:48:07;16.60;99.90
15656;DHT22;7928;43.614;1.456;2023-05-02T08:50:36;16.70;99.90
15656;DHT22;7928;43.614;1.456;2023-05-02T08:53:04;16.70;99.90
15656;DHT22;7928;43.614;1.456;2023-05-02T08:55:33;16.70;99.90
15656;DHT22;7928;43.614;1.456;2023-05-02T08:58:02;16.80;99.90
15656;DHT22;7928;43.614;1.456;2023-05-02T09:00:29;16.90;99.90
15656;DHT22;7928;43.614;1.456;2023-05-02T09:03:05;17.00;99.90
15656;DHT22;7928;43.614;1.456;2023-05-02T09:05:39;17.00;99.90
15656;DHT22;7928;43.614;1.456;2023-05-02T09:08:07;17.10;99.90
15656;DHT22;7928;43.614;1.456;2023-05-02T09:10:34;17.10;99.90
15656;DHT22;7928;43.614;1.456;2023-05-02T09:13:27;17.20;99.90
15656;DHT22;7928;43.614;1.456;2023-05-02T09:15:57;17.40;99.90
15656;DHT22;7928;43.614;1.456;2023-05-02T09:18:28;17.60;99.90
15656;DHT22;7928;43.614;1.456;2023-05-02T09:20:57;17.70;99.90
15656;DHT22;7928;43.614;1.456;2023-05-02T09:23:38;17.80;99.90
15656;DHT22;7928;43.614;1.456;2023-05-02T09:26:18;17.80;99.90
15656;DHT22;7928;43.614;1.456;2023-05-02T09:28:47;17.80;99.90
15656;DHT22;7928;43.614;1.456;2023-05-02T09:31:15;17.90;99.90
15656;DHT22;7928;43.614;1.456;2023-05-02T09:33:43;18.10;99.90
15656;DHT22;7928;43.614;1.456;2023-05-02T09:36:12;18.20;99.90
15656;DHT22;7928;43.614;1.456;2023-05-02T09:38:40;18.10;99.90
15656;DHT22;7928;43.614;1.456;2023-05-02T09:41:07;18.20;99.90
15656;DHT22;7928;43.614;1.456;2023-05-02T09:43:34;18.40;99.90
15656;DHT22;7928;43.614;1.456;2023-05-02T09:46:03;18.50;99.90
15656;DHT22;7928;43.614;1.456;2023-05-02T09:48:32;18.80;99.90
15656;DHT22;7928;43.614;1.456;2023-05-02T09:50:59;19.00;99.90
15656;DHT22;7928;43.614;1.456;2023-05-02T09:53:28;19.20;99.90
15656;DHT22;7928;43.614;1.456;2023-05-02T09:56:02;19.30;99.90
15656;DHT22;7928;43.614;1.456;2023-05-02T09:58:29;19.50;99.90
15656;DHT22;7928;43.614;1.456;2023-05-02T10:00:57;19.60;99.90
15656;DHT22;7928;43.614;1.456;2023-05-02T10:03:26;19.80;99.90
15656;DHT22;7928;43.614;1.456;2023-05-02T10:05:54;19.80;99.90
15656;DHT22;7928;43.614;1.456;2023-05-02T10:08:23;19.70;99.90
15656;DHT22;7928;43.614;1.456;2023-05-02T10:10:53;19.70;99.90
15656;DHT22;7928;43.614;1.456;2023-05-02T10:13:21;19.70;99.90
15656;DHT22;7928;43.614;1.456;2023-05-02T10:15:55;19.80;99.90
15656;DHT22;7928;43.614;1.456;2023-05-02T10:18:27;20.10;99.90
15656;DHT22;7928;43.614;1.456;2023-05-02T10:20:58;20.00;99.90
15656;DHT22;7928;43.614;1.456;2023-05-02T10:23:27;20.00;99.90
15656;DHT22;7928;43.614;1.456;2023-05-02T10:25:56;19.80;99.90
15656;DHT22;7928;43.614;1.456;2023-05-02T10:28:24;19.70;99.90
15656;DHT22;7928;43.614;1.456;2023-05-02T10:30:52;19.80;99.90
15656;DHT22;7928;43.614;1.456;2023-05-02T10:33:20;19.80;99.90
15656;DHT22;7928;43.614;1.456;2023-05-02T10:35:48;19.80;99.90
15656;DHT22;7928;43.614;1.456;2023-05-02T10:38:17;20.10;99.90
15656;DHT22;7928;43.614;1.456;2023-05-02T10:40:56;20.20;99.90
15656;DHT22;7928;43.614;1.456;2023-05-02T10:43:24;20.50;99.90
15656;DHT22;7928;43.614;1.456;2023-05-02T10:45:52;21.10;99.90
15656;DHT22;7928;43.614;1.456;2023-05-02T10:48:21;21.50;99.90
15656;DHT22;7928;43.614;1.456;2023-05-02T10:50:50;22.30;99.90
15656;DHT22;7928;43.614;1.456;2023-05-02T10:53:22;23.00;99.90
15656;DHT22;7928;43.614;1.456;2023-05-02T10:56:15;23.80;99.90
15656;DHT22;7928;43.614;1.456;2023-05-02T10:58:43;23.90;99.90
15656;DHT22;7928;43.614;1.456;2023-05-02T11:01:33;23.70;99.90
15656;DHT22;7928;43.614;1.456;2023-05-02T11:04:04;24.10;99.90
15656;DHT22;7928;43.614;1.456;2023-05-02T11:06:32;24.40;99.90
15656;DHT22;7928;43.614;1.456;2023-05-02T11:09:33;25.50;99.90
15656;DHT22;7928;43.614;1.456;2023-05-02T11:12:02;26.30;99.90
15656;DHT22;7928;43.614;1.456;2023-05-02T11:14:46;26.50;98.80
15656;DHT22;7928;43.614;1.456;2023-05-02T11:17:15;27.40;99.20
15656;DHT22;7928;43.614;1.456;2023-05-02T11:22:49;28.40;94.30
15656;DHT22;7928;43.614;1.456;2023-05-02T11:25:37;28.40;94.70
15656;DHT22;7928;43.614;1.456;2023-05-02T11:28:07;28.20;92.40
15656;DHT22;7928;43.614;1.456;2023-05-02T11:30:54;28.30;93.80
15656;DHT22;7928;43.614;1.456;2023-05-02T11:33:21;29.20;92.20
15656;DHT22;7928;43.614;1.456;2023-05-02T11:35:48;29.80;92.10
15656;DHT22;7928;43.614;1.456;2023-05-02T11:38:18;29.50;90.10
15656;DHT22;7928;43.614;1.456;2023-05-02T11:40:53;29.40;90.60
15656;DHT22;7928;43.614;1.456;2023-05-02T11:43:22;30.00;90.40
15656;DHT22;7928;43.614;1.456;2023-05-02T11:45:51;29.70;90.20
15656;DHT22;7928;43.614;1.456;2023-05-02T11:48:19;29.60;90.00
15656;DHT22;7928;43.614;1.456;2023-05-02T11:50:48;29.60;87.40
15656;DHT22;7928;43.614;1.456;2023-05-02T11:53:17;30.00;86.20
15656;DHT22;7928;43.614;1.456;2023-05-02T11:55:48;29.80;83.20
15656;DHT22;7928;43.614;1.456;2023-05-02T11:58:16;29.80;82.40
15656;DHT22;7928;43.614;1.456;2023-05-02T12:00:46;30.00;84.50
15656;DHT22;7928;43.614;1.456;2023-05-02T12:03:29;29.60;81.10
15656;DHT22;7928;43.614;1.456;2023-05-02T12:05:57;30.00;83.40
15656;DHT22;7928;43.614;1.456;2023-05-02T12:08:26;31.30;81.90
15656;DHT22;7928;43.614;1.456;2023-05-02T12:10:54;31.80;79.50
15656;DHT22;7928;43.614;1.456;2023-05-02T12:13:22;32.40;77.70
15656;DHT22;7928;43.614;1.456;2023-05-02T12:15:53;32.90;72.10
15656;DHT22;7928;43.614;1.456;2023-05-02T12:18:21;32.70;69.30
15656;DHT22;7928;43.614;1.456;2023-05-02T12:20:49;32.50;67.80
15656;DHT22;7928;43.614;1.456;2023-05-02T12:23:18;32.10;68.80
15656;DHT22;7928;43.614;1.456;2023-05-02T12:25:45;31.50;71.30
15656;DHT22;7928;43.614;1.456;2023-05-02T12:28:13;31.80;69.30
15656;DHT22;7928;43.614;1.456;2023-05-02T12:30:40;31.90;71.10
15656;DHT22;7928;43.614;1.456;2023-05-02T12:33:08;32.50;69.80
15656;DHT22;7928;43.614;1.456;2023-05-02T12:35:35;33.00;66.40
15656;DHT22;7928;43.614;1.456;2023-05-02T12:38:10;32.70;66.40
15656;DHT22;7928;43.614;1.456;2023-05-02T12:40:44;31.20;66.80
15656;DHT22;7928;43.614;1.456;2023-05-02T12:43:12;30.50;67.40
15656;DHT22;7928;43.614;1.456;2023-05-02T12:45:39;31.10;67.90
15656;DHT22;7928;43.614;1.456;2023-05-02T12:48:22;31.20;66.00
15656;DHT22;7928;43.614;1.456;2023-05-02T12:50:49;32.00;67.30
15656;DHT22;7928;43.614;1.456;2023-05-02T12:53:16;33.00;66.80
15656;DHT22;7928;43.614;1.456;2023-05-02T12:55:44;32.90;65.30
15656;DHT22;7928;43.614;1.456;2023-05-02T12:58:12;32.70;65.20
15656;DHT22;7928;43.614;1.456;2023-05-02T13:00:40;33.40;62.90
15656;DHT22;7928;43.614;1.456;2023-05-02T13:03:08;33.60;62.10
15656;DHT22;7928;43.614;1.456;2023-05-02T13:05:37;34.10;61.20
15656;DHT22;7928;43.614;1.456;2023-05-02T13:08:04;34.20;60.60
15656;DHT22;7928;43.614;1.456;2023-05-02T13:10:31;33.60;59.30
15656;DHT22;7928;43.614;1.456;2023-05-02T13:12:58;33.70;60.90
15656;DHT22;7928;43.614;1.456;2023-05-02T13:15:26;34.30;58.30
15656;DHT22;7928;43.614;1.456;2023-05-02T13:17:53;33.90;57.60
15656;DHT22;7928;43.614;1.456;2023-05-02T13:20:20;33.20;57.70
15656;DHT22;7928;43.614;1.456;2023-05-02T13:22:48;33.70;57.80
15656;DHT22;7928;43.614;1.456;2023-05-02T13:25:15;34.20;57.00
15656;DHT22;7928;43.614;1.456;2023-05-02T13:27:42;34.60;58.30
15656;DHT22;7928;43.614;1.456;2023-05-02T13:30:11;35.00;57.90
15656;DHT22;7928;43.614;1.456;2023-05-02T13:32:38;35.20;57.10
15656;DHT22;7928;43.614;1.456;2023-05-02T13:35:06;35.30;56.60
15656;DHT22;7928;43.614;1.456;2023-05-02T13:37:33;35.00;56.10
15656;DHT22;7928;43.614;1.456;2023-05-02T13:40:02;33.90;55.90
15656;DHT22;7928;43.614;1.456;2023-05-02T13:42:29;32.80;55.70
15656;DHT22;7928;43.614;1.456;2023-05-02T13:44:56;32.60;58.00
15656;DHT22;7928;43.614;1.456;2023-05-02T13:47:23;33.00;58.80
15656;DHT22;7928;43.614;1.456;2023-05-02T13:49:51;33.50;58.70
15656;DHT22;7928;43.614;1.456;2023-05-02T13:52:18;33.90;57.50
15656;DHT22;7928;43.614;1.456;2023-05-02T13:54:45;34.30;57.50
15656;DHT22;7928;43.614;1.456;2023-05-02T13:57:13;34.60;58.10
15656;DHT22;7928;43.614;1.456;2023-05-02T13:59:40;34.70;57.40
15656;DHT22;7928;43.614;1.456;2023-05-02T14:02:07;34.60;56.70
15656;DHT22;7928;43.614;1.456;2023-05-02T14:04:34;33.90;57.30
15656;DHT22;7928;43.614;1.456;2023-05-02T14:07:01;34.10;56.70
15656;DHT22;7928;43.614;1.456;2023-05-02T14:09:29;33.90;56.10
15656;DHT22;7928;43.614;1.456;2023-05-02T14:11:56;33.00;56.90
15656;DHT22;7928;43.614;1.456;2023-05-02T14:14:25;33.00;58.60
15656;DHT22;7928;43.614;1.456;2023-05-02T14:16:52;33.60;58.20
15656;DHT22;7928;43.614;1.456;2023-05-02T14:19:19;33.50;57.30
15656;DHT22;7928;43.614;1.456;2023-05-02T14:21:46;33.70;59.40
15656;DHT22;7928;43.614;1.456;2023-05-02T14:24:13;33.60;58.40
15656;DHT22;7928;43.614;1.456;2023-05-02T14:26:41;34.10;58.60
15656;DHT22;7928;43.614;1.456;2023-05-02T14:29:08;34.40;58.70
15656;DHT22;7928;43.614;1.456;2023-05-02T14:31:36;34.70;57.90
15656;DHT22;7928;43.614;1.456;2023-05-02T14:34:03;34.50;57.40
15656;DHT22;7928;43.614;1.456;2023-05-02T14:36:30;33.90;56.70
15656;DHT22;7928;43.614;1.456;2023-05-02T14:38:57;33.10;58.50
15656;DHT22;7928;43.614;1.456;2023-05-02T14:41:24;33.20;59.20
15656;DHT22;7928;43.614;1.456;2023-05-02T14:43:52;33.80;60.00
15656;DHT22;7928;43.614;1.456;2023-05-02T14:46:19;34.40;59.80
15656;DHT22;7928;43.614;1.456;2023-05-02T14:48:47;33.60;57.40
15656;DHT22;7928;43.614;1.456;2023-05-02T14:51:14;32.70;57.50
15656;DHT22;7928;43.614;1.456;2023-05-02T14:53:41;33.10;57.80
15656;DHT22;7928;43.614;1.456;2023-05-02T14:56:12;33.20;58.70
15656;DHT22;7928;43.614;1.456;2023-05-02T14:58:41;33.40;58.40
15656;DHT22;7928;43.614;1.456;2023-05-02T15:01:14;33.20;58.00
15656;DHT22;7928;43.614;1.456;2023-05-02T15:03:42;33.80;57.00
15656;DHT22;7928;43.614;1.456;2023-05-02T15:06:12;34.00;56.70
15656;DHT22;7928;43.614;1.456;2023-05-02T15:08:39;34.10;57.50
15656;DHT22;7928;43.614;1.456;2023-05-02T15:11:06;34.20;55.30
15656;DHT22;7928;43.614;1.456;2023-05-02T15:13:34;34.50;54.50
15656;DHT22;7928;43.614;1.456;2023-05-02T15:16:01;34.60;52.90
15656;DHT22;7928;43.614;1.456;2023-05-02T15:18:28;34.00;52.90
15656;DHT22;7928;43.614;1.456;2023-05-02T15:20:55;33.80;54.20
15656;DHT22;7928;43.614;1.456;2023-05-02T15:23:24;33.90;54.00
15656;DHT22;7928;43.614;1.456;2023-05-02T15:25:51;34.20;55.30
15656;DHT22;7928;43.614;1.456;2023-05-02T15:28:18;34.40;53.70
15656;DHT22;7928;43.614;1.456;2023-05-02T15:30:45;34.30;52.60
15656;DHT22;7928;43.614;1.456;2023-05-02T15:33:13;34.40;54.10
15656;DHT22;7928;43.614;1.456;2023-05-02T15:35:51;34.00;51.50
15656;DHT22;7928;43.614;1.456;2023-05-02T15:38:19;32.90;53.00
15656;DHT22;7928;43.614;1.456;2023-05-02T15:40:54;32.90;52.40
15656;DHT22;7928;43.614;1.456;2023-05-02T15:43:21;32.40;54.80
15656;DHT22;7928;43.614;1.456;2023-05-02T15:45:52;32.80;54.00
15656;DHT22;7928;43.614;1.456;2023-05-02T15:48:19;33.10;53.80
15656;DHT22;7928;43.614;1.456;2023-05-02T15:50:46;33.10;55.30
15656;DHT22;7928;43.614;1.456;2023-05-02T15:53:14;33.10;54.50
15656;DHT22;7928;43.614;1.456;2023-05-02T15:55:41;32.50;53.90
15656;DHT22;7928;43.614;1.456;2023-05-02T15:58:11;32.20;55.50
15656;DHT22;7928;43.614;1.456;2023-05-02T16:00:38;32.20;56.90